sensor_id;sensor_type;location;lat;lon;timestamp;pressure;altitude;pressure_sealevel;temperature;humidity
40285;BME280;25997;50.214;19.354;2022-12-18T00:01:57;99165.63;;;-2.73;50.95
40285;BME280;25997;50.214;19.354;2022-12-18T00:05:00;99179.72;;;-2.86;50.84
40285;BME280;25997;50.214;19.354;2022-12-18T00:08:03;99181.69;;;-2.84;51.20
40285;BME280;25997;50.214;19.354;2022-12-18T00:11:06;99188.22;;;-2.87;50.99
40285;BME280;25997;50.214;19.354;2022-12-18T00:14:12;99186.34;;;-2.80;50.74
40285;BME280;25997;50.214;19.354;2022-12-18T00:17:15;99190.28;;;-2.75;51.19
40285;BME280;25997;50.214;19.354;2022-12-18T00:20:17;99195.84;;;-2.70;50.89
40285;BME280;25997;50.214;19.354;2022-12-18T00:23:26;99189.81;;;-2.71;50.70
40285;BME280;25997;50.214;19.354;2022-12-18T00:26:30;99192.69;;;-2.68;50.87
40285;BME280;25997;50.214;19.354;2022-12-18T00:29:37;99197.22;;;-2.65;50.82
40285;BME280;25997;50.214;19.354;2022-12-18T00:32:40;99201.56;;;-2.64;51.01
40285;BME280;25997;50.214;19.354;2022-12-18T00:35:42;99202.44;;;-2.55;51.05
40285;BME280;25997;50.214;19.354;2022-12-18T00:38:46;99202.63;;;-2.54;50.68
40285;BME280;25997;50.214;19.354;2022-12-18T00:41:52;99202.75;;;-2.52;50.83
40285;BME280;25997;50.214;19.354;2022-12-18T00:45:13;99210.31;;;-2.54;50.89
40285;BME280;25997;50.214;19.354;2022-12-18T00:48:16;99220.44;;;-2.55;50.89
40285;BME280;25997;50.214;19.354;2022-12-18T00:51:18;99227.47;;;-2.71;50.57
40285;BME280;25997;50.214;19.354;2022-12-18T00:54:21;99232.78;;;-2.78;50.80
40285;BME280;25997;50.214;19.354;2022-12-18T00:57:24;99229.75;;;-2.74;50.77
40285;BME280;25997;50.214;19.354;2022-12-18T01:00:28;99232.44;;;-2.73;50.90
40285;BME280;25997;50.214;19.354;2022-12-18T01:03:31;99242.72;;;-2.73;50.54
40285;BME280;25997;50.214;19.354;2022-12-18T01:06:33;99242.88;;;-2.80;50.69
40285;BME280;25997;50.214;19.354;2022-12-18T01:09:36;99246.81;;;-2.75;50.72
40285;BME280;25997;50.214;19.354;2022-12-18T01:12:40;99246.97;;;-2.82;50.50
40285;BME280;25997;50.214;19.354;2022-12-18T01:15:49;99248.47;;;-2.75;50.67
40285;BME280;25997;50.214;19.354;2022-12-18T01:18:52;99252.38;;;-2.70;50.43
40285;BME280;25997;50.214;19.354;2022-12-18T01:21:56;99250.28;;;-2.74;50.26
40285;BME280;25997;50.214;19.354;2022-12-18T01:24:58;99263.72;;;-2.68;50.64
40285;BME280;25997;50.214;19.354;2022-12-18T01:28:01;99267.78;;;-2.62;50.19
40285;BME280;25997;50.214;19.354;2022-12-18T01:31:13;99266.59;;;-2.65;50.19
40285;BME280;25997;50.214;19.354;2022-12-18T01:34:16;99260.72;;;-2.73;50.23
40285;BME280;25997;50.214;19.354;2022-12-18T01:37:18;99262.56;;;-2.80;50.34
40285;BME280;25997;50.214;19.354;2022-12-18T01:40:21;99261.47;;;-2.74;50.60
40285;BME280;25997;50.214;19.354;2022-12-18T01:43:41;99249.22;;;-2.68;50.16
40285;BME280;25997;50.214;19.354;2022-12-18T01:46:45;99256.47;;;-2.72;50.27
40285;BME280;25997;50.214;19.354;2022-12-18T01:49:48;99261.94;;;-2.69;50.32
40285;BME280;25997;50.214;19.354;2022-12-18T01:52:52;99260.72;;;-2.73;50.20
40285;BME280;25997;50.214;19.354;2022-12-18T01:55:56;99268.75;;;-2.78;50.63
40285;BME280;25997;50.214;19.354;2022-12-18T01:59:02;99279.78;;;-2.79;50.34
40285;BME280;25997;50.214;19.354;2022-12-18T02:02:07;99277.66;;;-2.75;50.13
40285;BME280;25997;50.214;19.354;2022-12-18T02:05:11;99283.22;;;-2.70;50.50
40285;BME280;25997;50.214;19.354;2022-12-18T02:08:19;99291.84;;;-2.70;50.45
40285;BME280;25997;50.214;19.354;2022-12-18T02:11:31;99292.75;;;-2.61;50.41
40285;BME280;25997;50.214;19.354;2022-12-18T02:14:43;99295.44;;;-2.59;50.25
40285;BME280;25997;50.214;19.354;2022-12-18T02:17:52;99306.50;;;-2.69;50.10
40285;BME280;25997;50.214;19.354;2022-12-18T02:21:00;99307.13;;;-2.80;50.30
40285;BME280;25997;50.214;19.354;2022-12-18T02:24:18;99321.91;;;-2.69;50.66
40285;BME280;25997;50.214;19.354;2022-12-18T02:27:24;99317.81;;;-2.67;50.20
40285;BME280;25997;50.214;19.354;2022-12-18T02:30:31;99325.84;;;-2.64;50.74
40285;BME280;25997;50.214;19.354;2022-12-18T02:33:36;99329.19;;;-2.56;50.19
40285;BME280;25997;50.214;19.354;2022-12-18T02:36:41;99322.06;;;-2.59;50.41
40285;BME280;25997;50.214;19.354;2022-12-18T02:39:48;99327.22;;;-2.59;50.77
40285;BME280;25997;50.214;19.354;2022-12-18T02:42:52;99329.31;;;-2.55;50.38
40285;BME280;25997;50.214;19.354;2022-12-18T02:45:57;99328.88;;;-2.59;50.41
40285;BME280;25997;50.214;19.354;2022-12-18T02:49:09;99330.06;;;-2.64;50.87
40285;BME280;25997;50.214;19.354;2022-12-18T02:52:21;99344.91;;;-2.79;51.11
40285;BME280;25997;50.214;19.354;2022-12-18T02:55:35;99349.13;;;-2.79;50.89
40285;BME280;25997;50.214;19.354;2022-12-18T02:58:52;99358.50;;;-2.88;51.00
40285;BME280;25997;50.214;19.354;2022-12-18T03:02:20;99349.00;;;-2.98;51.14
40285;BME280;25997;50.214;19.354;2022-12-18T03:05:31;99359.44;;;-3.05;51.18
40285;BME280;25997;50.214;19.354;2022-12-18T03:08:38;99359.13;;;-3.08;51.05
40285;BME280;25997;50.214;19.354;2022-12-18T03:11:46;99362.44;;;-3.09;51.06
40285;BME280;25997;50.214;19.354;2022-12-18T03:15:14;99369.97;;;-3.02;51.11
40285;BME280;25997;50.214;19.354;2022-12-18T03:18:23;99372.53;;;-3.19;51.40
40285;BME280;25997;50.214;19.354;2022-12-18T03:21:29;99372.88;;;-3.16;51.25
40285;BME280;25997;50.214;19.354;2022-12-18T03:24:36;99365.16;;;-3.16;51.46
40285;BME280;25997;50.214;19.354;2022-12-18T03:27:46;99370.31;;;-3.07;51.18
40285;BME280;25997;50.214;19.354;2022-12-18T03:30:56;99367.72;;;-3.07;51.22
40285;BME280;25997;50.214;19.354;2022-12-18T03:34:02;99376.81;;;-3.02;51.23
40285;BME280;25997;50.214;19.354;2022-12-18T03:37:14;99373.47;;;-3.10;51.31
40285;BME280;25997;50.214;19.354;2022-12-18T03:40:19;99371.97;;;-3.08;51.16
40285;BME280;25997;50.214;19.354;2022-12-18T03:43:34;99375.72;;;-3.13;51.26
40285;BME280;25997;50.214;19.354;2022-12-18T03:46:41;99393.69;;;-3.04;51.55
40285;BME280;25997;50.214;19.354;2022-12-18T03:49:55;99391.91;;;-2.97;51.33
40285;BME280;25997;50.214;19.354;2022-12-18T03:53:13;99394.94;;;-2.84;50.92
40285;BME280;25997;50.214;19.354;2022-12-18T03:56:22;99387.69;;;-2.79;50.79
40285;BME280;25997;50.214;19.354;2022-12-18T03:59:27;99401.59;;;-2.86;51.19
40285;BME280;25997;50.214;19.354;2022-12-18T04:02:34;99402.38;;;-2.78;51.10
40285;BME280;25997;50.214;19.354;2022-12-18T04:05:37;99405.97;;;-2.76;50.99
40285;BME280;25997;50.214;19.354;2022-12-18T04:08:42;99408.25;;;-2.79;51.01
40285;BME280;25997;50.214;19.354;2022-12-18T04:11:48;99410.66;;;-2.72;50.98
40285;BME280;25997;50.214;19.354;2022-12-18T04:14:51;99415.34;;;-2.68;50.92
40285;BME280;25997;50.214;19.354;2022-12-18T04:17:55;99415.66;;;-2.74;50.82
40285;BME280;25997;50.214;19.354;2022-12-18T04:21:00;99417.63;;;-2.71;51.25
40285;BME280;25997;50.214;19.354;2022-12-18T04:24:03;99419.88;;;-2.66;51.02
40285;BME280;25997;50.214;19.354;2022-12-18T04:27:07;99431.38;;;-2.62;51.05
40285;BME280;25997;50.214;19.354;2022-12-18T04:30:17;99433.66;;;-2.65;50.95
40285;BME280;25997;50.214;19.354;2022-12-18T04:33:21;99432.28;;;-2.70;51.11
40285;BME280;25997;50.214;19.354;2022-12-18T04:36:24;99444.97;;;-2.63;50.80
40285;BME280;25997;50.214;19.354;2022-12-18T04:39:27;99448.16;;;-2.66;51.15
40285;BME280;25997;50.214;19.354;2022-12-18T04:42:34;99451.03;;;-2.71;51.11
40285;BME280;25997;50.214;19.354;2022-12-18T04:45:37;99458.88;;;-2.78;50.86
40285;BME280;25997;50.214;19.354;2022-12-18T04:48:41;99456.00;;;-2.90;51.10
40285;BME280;25997;50.214;19.354;2022-12-18T04:51:43;99461.13;;;-2.90;51.25
40285;BME280;25997;50.214;19.354;2022-12-18T04:54:46;99461.75;;;-2.84;51.20
40285;BME280;25997;50.214;19.354;2022-12-18T04:57:48;99471.09;;;-2.84;51.14
40285;BME280;25997;50.214;19.354;2022-12-18T05:00:51;99470.94;;;-2.94;51.33
40285;BME280;25997;50.214;19.354;2022-12-18T05:03:55;99475.50;;;-2.92;51.16
40285;BME280;25997;50.214;19.354;2022-12-18T05:06:57;99474.56;;;-2.92;51.18
40285;BME280;25997;50.214;19.354;2022-12-18T05:10:00;99487.53;;;-2.99;51.00
40285;BME280;25997;50.214;19.354;2022-12-18T05:13:02;99478.66;;;-2.94;51.16
40285;BME280;25997;50.214;19.354;2022-12-18T05:16:06;99485.47;;;-2.86;50.91
40285;BME280;25997;50.214;19.354;2022-12-18T05:19:10;99482.28;;;-2.92;51.11
40285;BME280;25997;50.214;19.354;2022-12-18T05:22:12;99488.00;;;-3.03;51.58
40285;BME280;25997;50.214;19.354;2022-12-18T05:25:15;99486.03;;;-3.06;51.11
40285;BME280;25997;50.214;19.354;2022-12-18T05:28:17;99497.34;;;-3.04;51.15
40285;BME280;25997;50.214;19.354;2022-12-18T05:31:20;99499.78;;;-3.05;51.11
40285;BME280;25997;50.214;19.354;2022-12-18T05:34:24;99502.13;;;-3.24;51.67
40285;BME280;25997;50.214;19.354;2022-12-18T05:37:27;99505.44;;;-3.25;51.86
40285;BME280;25997;50.214;19.354;2022-12-18T05:40:29;99498.66;;;-3.25;51.51
40285;BME280;25997;50.214;19.354;2022-12-18T05:43:34;99499.28;;;-3.19;51.79
40285;BME280;25997;50.214;19.354;2022-12-18T05:46:36;99505.03;;;-3.12;51.66
40285;BME280;25997;50.214;19.354;2022-12-18T05:49:40;99507.91;;;-3.18;51.61
40285;BME280;25997;50.214;19.354;2022-12-18T05:52:43;99512.69;;;-3.30;51.62
40285;BME280;25997;50.214;19.354;2022-12-18T05:55:46;99517.50;;;-3.33;51.75
40285;BME280;25997;50.214;19.354;2022-12-18T05:58:51;99518.00;;;-3.20;51.57
40285;BME280;25997;50.214;19.354;2022-12-18T06:01:54;99522.09;;;-3.13;51.82
40285;BME280;25997;50.214;19.354;2022-12-18T06:04:58;99531.19;;;-3.08;51.57
40285;BME280;25997;50.214;19.354;2022-12-18T06:08:01;99521.25;;;-3.05;51.57
40285;BME280;25997;50.214;19.354;2022-12-18T06:11:04;99528.50;;;-3.01;51.47
40285;BME280;25997;50.214;19.354;2022-12-18T06:14:06;99531.03;;;-3.18;51.90
40285;BME280;25997;50.214;19.354;2022-12-18T06:17:09;99537.03;;;-3.18;51.90
40285;BME280;25997;50.214;19.354;2022-12-18T06:20:13;99540.19;;;-3.20;51.68
40285;BME280;25997;50.214;19.354;2022-12-18T06:23:15;99535.94;;;-3.28;51.74
40285;BME280;25997;50.214;19.354;2022-12-18T06:26:18;99544.44;;;-3.21;51.84
40285;BME280;25997;50.214;19.354;2022-12-18T06:29:21;99542.63;;;-3.13;51.48
40285;BME280;25997;50.214;19.354;2022-12-18T06:32:23;99558.50;;;-3.17;51.89
40285;BME280;25997;50.214;19.354;2022-12-18T06:35:27;99557.09;;;-3.22;51.65
40285;BME280;25997;50.214;19.354;2022-12-18T06:38:31;99564.50;;;-3.25;51.83
40285;BME280;25997;50.214;19.354;2022-12-18T06:41:33;99563.13;;;-3.30;52.16
40285;BME280;25997;50.214;19.354;2022-12-18T06:44:36;99575.72;;;-3.16;51.99
40285;BME280;25997;50.214;19.354;2022-12-18T06:47:38;99580.75;;;-3.09;51.41
40285;BME280;25997;50.214;19.354;2022-12-18T06:50:43;99573.94;;;-3.08;51.55
40285;BME280;25997;50.214;19.354;2022-12-18T06:53:46;99580.09;;;-3.15;51.57
40285;BME280;25997;50.214;19.354;2022-12-18T06:56:49;99584.97;;;-3.09;51.42
40285;BME280;25997;50.214;19.354;2022-12-18T06:59:51;99580.28;;;-3.13;51.66
40285;BME280;25997;50.214;19.354;2022-12-18T07:02:54;99591.03;;;-3.09;51.76
40285;BME280;25997;50.214;19.354;2022-12-18T07:05:58;99602.47;;;-3.14;51.67
40285;BME280;25997;50.214;19.354;2022-12-18T07:09:00;99604.38;;;-3.20;51.73
40285;BME280;25997;50.214;19.354;2022-12-18T07:12:03;99601.22;;;-3.18;51.34
40285;BME280;25997;50.214;19.354;2022-12-18T07:15:07;99611.69;;;-3.16;51.71
40285;BME280;25997;50.214;19.354;2022-12-18T07:18:10;99613.00;;;-3.20;51.69
40285;BME280;25997;50.214;19.354;2022-12-18T07:21:17;99617.13;;;-3.13;51.65
40285;BME280;25997;50.214;19.354;2022-12-18T07:24:19;99610.47;;;-3.11;51.65
40285;BME280;25997;50.214;19.354;2022-12-18T07:27:22;99618.84;;;-3.05;51.44
40285;BME280;25997;50.214;19.354;2022-12-18T07:30:25;99623.50;;;-3.09;51.31
40285;BME280;25997;50.214;19.354;2022-12-18T07:33:27;99639.03;;;-3.17;51.60
40285;BME280;25997;50.214;19.354;2022-12-18T07:36:31;99645.91;;;-3.24;51.60
40285;BME280;25997;50.214;19.354;2022-12-18T07:39:34;99658.66;;;-3.17;51.58
40285;BME280;25997;50.214;19.354;2022-12-18T07:42:37;99653.25;;;-3.11;51.66
40285;BME280;25997;50.214;19.354;2022-12-18T07:45:39;99654.50;;;-2.99;51.52
40285;BME280;25997;50.214;19.354;2022-12-18T07:48:42;99645.34;;;-2.89;51.53
40285;BME280;25997;50.214;19.354;2022-12-18T07:51:46;99653.78;;;-2.66;51.18
40285;BME280;25997;50.214;19.354;2022-12-18T07:54:50;99655.03;;;-2.54;50.73
40285;BME280;25997;50.214;19.354;2022-12-18T07:57:52;99647.16;;;-2.55;50.92
40285;BME280;25997;50.214;19.354;2022-12-18T08:01:02;99650.84;;;-2.45;51.00
40285;BME280;25997;50.214;19.354;2022-12-18T08:04:05;99649.63;;;-2.39;50.51
40285;BME280;25997;50.214;19.354;2022-12-18T08:07:09;99652.22;;;-2.31;50.46
40285;BME280;25997;50.214;19.354;2022-12-18T08:10:11;99649.94;;;-2.36;50.59
40285;BME280;25997;50.214;19.354;2022-12-18T08:13:14;99661.44;;;-2.24;51.00
40285;BME280;25997;50.214;19.354;2022-12-18T08:16:17;99654.38;;;-2.18;50.05
40285;BME280;25997;50.214;19.354;2022-12-18T08:19:20;99656.50;;;-2.14;50.32
40285;BME280;25997;50.214;19.354;2022-12-18T08:22:24;99661.50;;;-2.16;50.39
40285;BME280;25997;50.214;19.354;2022-12-18T08:25:26;99664.09;;;-2.07;50.60
40285;BME280;25997;50.214;19.354;2022-12-18T08:28:29;99661.66;;;-1.89;50.25
40285;BME280;25997;50.214;19.354;2022-12-18T08:31:31;99664.09;;;-1.64;50.05
40285;BME280;25997;50.214;19.354;2022-12-18T08:34:35;99661.84;;;-1.53;49.63
40285;BME280;25997;50.214;19.354;2022-12-18T08:37:39;99660.75;;;-1.46;49.46
40285;BME280;25997;50.214;19.354;2022-12-18T08:40:41;99663.94;;;-1.49;49.16
40285;BME280;25997;50.214;19.354;2022-12-18T08:43:44;99675.94;;;-1.49;49.11
40285;BME280;25997;50.214;19.354;2022-12-18T08:47:04;99677.16;;;-1.63;49.31
40285;BME280;25997;50.214;19.354;2022-12-18T08:50:08;99671.84;;;-1.56;49.42
40285;BME280;25997;50.214;19.354;2022-12-18T08:53:13;99689.41;;;-1.35;49.81
40285;BME280;25997;50.214;19.354;2022-12-18T08:56:16;99694.53;;;-1.18;49.48
40285;BME280;25997;50.214;19.354;2022-12-18T08:59:19;99704.06;;;-1.08;49.04
40285;BME280;25997;50.214;19.354;2022-12-18T09:02:21;99702.09;;;-1.11;48.90
40285;BME280;25997;50.214;19.354;2022-12-18T09:05:24;99704.09;;;-1.17;48.98
40285;BME280;25997;50.214;19.354;2022-12-18T09:08:28;99704.22;;;-1.15;48.63
40285;BME280;25997;50.214;19.354;2022-12-18T09:11:31;99705.91;;;-1.24;48.47
40285;BME280;25997;50.214;19.354;2022-12-18T09:14:34;99705.44;;;-1.29;48.79
40285;BME280;25997;50.214;19.354;2022-12-18T09:17:36;99708.31;;;-1.09;48.78
40285;BME280;25997;50.214;19.354;2022-12-18T09:20:39;99708.94;;;-1.03;48.21
40285;BME280;25997;50.214;19.354;2022-12-18T09:23:48;99715.72;;;-0.86;48.60
40285;BME280;25997;50.214;19.354;2022-12-18T09:26:53;99722.06;;;-0.74;48.09
40285;BME280;25997;50.214;19.354;2022-12-18T09:29:56;99721.44;;;-0.63;48.31
40285;BME280;25997;50.214;19.354;2022-12-18T09:32:58;99721.56;;;-0.61;48.00
40285;BME280;25997;50.214;19.354;2022-12-18T09:36:01;99726.59;;;-0.63;47.94
40285;BME280;25997;50.214;19.354;2022-12-18T09:39:05;99723.97;;;-0.54;48.00
40285;BME280;25997;50.214;19.354;2022-12-18T09:42:16;99717.25;;;-0.44;47.62
40285;BME280;25997;50.214;19.354;2022-12-18T09:45:21;99719.53;;;-0.38;47.49
40285;BME280;25997;50.214;19.354;2022-12-18T09:48:27;99713.31;;;-0.49;47.24
40285;BME280;25997;50.214;19.354;2022-12-18T09:51:35;99721.94;;;-0.40;47.19
40285;BME280;25997;50.214;19.354;2022-12-18T09:54:42;99731.16;;;-0.33;47.24
40285;BME280;25997;50.214;19.354;2022-12-18T09:57:50;99724.56;;;-0.12;47.10
40285;BME280;25997;50.214;19.354;2022-12-18T10:00:55;99723.44;;;-0.06;47.01
40285;BME280;25997;50.214;19.354;2022-12-18T10:03:58;99724.13;;;-0.17;46.79
40285;BME280;25997;50.214;19.354;2022-12-18T10:07:04;99724.34;;;-0.33;46.54
40285;BME280;25997;50.214;19.354;2022-12-18T10:10:21;99731.00;;;-0.26;46.82
40285;BME280;25997;50.214;19.354;2022-12-18T10:13:30;99731.56;;;-0.20;46.34
40285;BME280;25997;50.214;19.354;2022-12-18T10:16:38;99723.09;;;-0.28;45.96
40285;BME280;25997;50.214;19.354;2022-12-18T10:19:48;99720.34;;;-0.21;46.19
40285;BME280;25997;50.214;19.354;2022-12-18T10:22:57;99722.03;;;0.06;46.31
40285;BME280;25997;50.214;19.354;2022-12-18T10:26:07;99721.56;;;0.10;45.71
40285;BME280;25997;50.214;19.354;2022-12-18T10:29:12;99720.88;;;0.21;45.82
40285;BME280;25997;50.214;19.354;2022-12-18T10:32:18;99716.00;;;0.24;45.55
40285;BME280;25997;50.214;19.354;2022-12-18T10:35:23;99716.19;;;0.36;45.30
40285;BME280;25997;50.214;19.354;2022-12-18T10:38:27;99711.66;;;0.33;45.21
40285;BME280;25997;50.214;19.354;2022-12-18T10:41:31;99707.56;;;0.35;45.47
40285;BME280;25997;50.214;19.354;2022-12-18T10:44:34;99707.41;;;0.34;45.44
40285;BME280;25997;50.214;19.354;2022-12-18T10:47:37;99697.34;;;0.45;45.35
40285;BME280;25997;50.214;19.354;2022-12-18T10:50:46;99702.22;;;0.61;45.41
40285;BME280;25997;50.214;19.354;2022-12-18T10:53:56;99699.06;;;0.74;44.92
40285;BME280;25997;50.214;19.354;2022-12-18T10:57:16;99683.84;;;0.77;44.26
40285;BME280;25997;50.214;19.354;2022-12-18T11:00:22;99683.44;;;0.72;45.07
40285;BME280;25997;50.214;19.354;2022-12-18T11:03:30;99687.88;;;0.83;45.17
40285;BME280;25997;50.214;19.354;2022-12-18T11:06:33;99690.50;;;0.93;44.83
40285;BME280;25997;50.214;19.354;2022-12-18T11:09:37;99683.53;;;1.11;45.07
40285;BME280;25997;50.214;19.354;2022-12-18T11:12:41;99683.25;;;1.18;44.55
40285;BME280;25997;50.214;19.354;2022-12-18T11:15:44;99684.19;;;1.18;44.89
40285;BME280;25997;50.214;19.354;2022-12-18T11:18:47;99671.03;;;1.25;44.83
40285;BME280;25997;50.214;19.354;2022-12-18T11:21:49;99672.84;;;1.27;44.83
40285;BME280;25997;50.214;19.354;2022-12-18T11:24:55;99669.28;;;1.16;44.64
40285;BME280;25997;50.214;19.354;2022-12-18T11:28:01;99668.72;;;1.00;44.79
40285;BME280;25997;50.214;19.354;2022-12-18T11:31:23;99674.84;;;1.10;44.36
40285;BME280;25997;50.214;19.354;2022-12-18T11:34:28;99674.44;;;1.06;45.10
40285;BME280;25997;50.214;19.354;2022-12-18T11:37:32;99672.88;;;1.08;44.81
40285;BME280;25997;50.214;19.354;2022-12-18T11:40:37;99672.59;;;1.05;45.06
40285;BME280;25997;50.214;19.354;2022-12-18T11:43:45;99671.59;;;1.42;44.72
40285;BME280;25997;50.214;19.354;2022-12-18T11:46:55;99678.78;;;1.84;43.94
40285;BME280;25997;50.214;19.354;2022-12-18T11:50:10;99681.66;;;2.48;43.82
40285;BME280;25997;50.214;19.354;2022-12-18T11:53:14;99684.59;;;2.83;42.63
40285;BME280;25997;50.214;19.354;2022-12-18T11:56:30;99674.03;;;3.11;42.12
40285;BME280;25997;50.214;19.354;2022-12-18T11:59:42;99687.91;;;3.12;41.07
40285;BME280;25997;50.214;19.354;2022-12-18T12:03:12;99685.75;;;3.06;40.88
40285;BME280;25997;50.214;19.354;2022-12-18T12:06:23;99685.91;;;2.98;41.15
40285;BME280;25997;50.214;19.354;2022-12-18T12:09:35;99682.56;;;2.89;41.47
40285;BME280;25997;50.214;19.354;2022-12-18T12:12:54;99682.91;;;2.83;41.07
40285;BME280;25997;50.214;19.354;2022-12-18T12:16:09;99687.97;;;2.71;40.82
40285;BME280;25997;50.214;19.354;2022-12-18T12:19:24;99687.06;;;2.91;41.37
40285;BME280;25997;50.214;19.354;2022-12-18T12:22:37;99690.81;;;2.85;41.06
40285;BME280;25997;50.214;19.354;2022-12-18T12:25:48;99694.06;;;2.92;41.47
40285;BME280;25997;50.214;19.354;2022-12-18T12:29:02;99700.66;;;3.09;40.92
40285;BME280;25997;50.214;19.354;2022-12-18T12:32:17;99703.03;;;3.27;41.26
40285;BME280;25997;50.214;19.354;2022-12-18T12:35:30;99695.66;;;3.54;41.60
40285;BME280;25997;50.214;19.354;2022-12-18T12:38:36;99696.50;;;3.86;41.44
40285;BME280;25997;50.214;19.354;2022-12-18T12:41:39;99705.63;;;3.81;40.78
40285;BME280;25997;50.214;19.354;2022-12-18T12:45:02;99715.47;;;3.85;41.23
40285;BME280;25997;50.214;19.354;2022-12-18T12:48:13;99707.53;;;4.05;41.60
40285;BME280;25997;50.214;19.354;2022-12-18T12:51:21;99709.19;;;4.48;41.03
40285;BME280;25997;50.214;19.354;2022-12-18T12:54:26;99717.22;;;4.51;41.17
40285;BME280;25997;50.214;19.354;2022-12-18T12:57:33;99708.03;;;4.89;40.52
40285;BME280;25997;50.214;19.354;2022-12-18T13:00:41;99711.88;;;4.82;39.93
40285;BME280;25997;50.214;19.354;2022-12-18T13:03:51;99713.84;;;4.63;35.63
40285;BME280;25997;50.214;19.354;2022-12-18T13:07:01;99720.13;;;4.44;40.26
40285;BME280;25997;50.214;19.354;2022-12-18T13:10:31;99726.97;;;4.32;39.34
40285;BME280;25997;50.214;19.354;2022-12-18T13:13:48;99726.41;;;4.36;39.53
40285;BME280;25997;50.214;19.354;2022-12-18T13:16:50;99720.28;;;4.24;39.96
40285;BME280;25997;50.214;19.354;2022-12-18T13:20:08;99723.31;;;4.18;40.02
40285;BME280;25997;50.214;19.354;2022-12-18T13:23:27;99723.19;;;4.16;38.15
40285;BME280;25997;50.214;19.354;2022-12-18T13:26:32;99729.84;;;3.91;39.86
40285;BME280;25997;50.214;19.354;2022-12-18T13:29:42;99735.13;;;3.81;40.23
40285;BME280;25997;50.214;19.354;2022-12-18T13:32:45;99732.16;;;3.77;40.33
40285;BME280;25997;50.214;19.354;2022-12-18T13:35:53;99744.34;;;3.78;39.99
40285;BME280;25997;50.214;19.354;2022-12-18T13:39:31;99742.94;;;3.71;38.76
40285;BME280;25997;50.214;19.354;2022-12-18T13:42:40;99747.72;;;3.55;39.72
40285;BME280;25997;50.214;19.354;2022-12-18T13:46:03;99741.13;;;3.49;40.04
40285;BME280;25997;50.214;19.354;2022-12-18T13:49:20;99747.00;;;3.36;39.08
40285;BME280;25997;50.214;19.354;2022-12-18T13:52:27;99749.19;;;3.00;39.83
40285;BME280;25997;50.214;19.354;2022-12-18T13:55:30;99753.47;;;2.89;40.23
40285;BME280;25997;50.214;19.354;2022-12-18T13:58:32;99748.66;;;2.84;40.29
40285;BME280;25997;50.214;19.354;2022-12-18T14:01:35;99753.06;;;2.64;40.33
40285;BME280;25997;50.214;19.354;2022-12-18T14:04:38;99752.16;;;2.34;40.15
40285;BME280;25997;50.214;19.354;2022-12-18T14:07:42;99761.06;;;2.07;40.73
40285;BME280;25997;50.214;19.354;2022-12-18T14:10:46;99759.66;;;1.62;40.72
40285;BME280;25997;50.214;19.354;2022-12-18T14:13:50;99757.69;;;1.02;41.50
40285;BME280;25997;50.214;19.354;2022-12-18T14:16:52;99766.75;;;0.70;42.08
40285;BME280;25997;50.214;19.354;2022-12-18T14:19:55;99758.66;;;0.57;42.63
40285;BME280;25997;50.214;19.354;2022-12-18T14:22:59;99760.81;;;0.52;42.46
40285;BME280;25997;50.214;19.354;2022-12-18T14:26:20;99753.16;;;0.35;42.30
40285;BME280;25997;50.214;19.354;2022-12-18T14:29:26;99747.91;;;-0.02;42.59
40285;BME280;25997;50.214;19.354;2022-12-18T14:32:28;99753.31;;;-0.35;42.96
40285;BME280;25997;50.214;19.354;2022-12-18T14:35:32;99756.31;;;-0.66;43.24
40285;BME280;25997;50.214;19.354;2022-12-18T14:38:37;99752.00;;;-1.19;43.75
40285;BME280;25997;50.214;19.354;2022-12-18T14:41:40;99763.50;;;-1.58;44.55
40285;BME280;25997;50.214;19.354;2022-12-18T14:44:42;99762.69;;;-1.83;44.53
40285;BME280;25997;50.214;19.354;2022-12-18T14:47:45;99758.81;;;-2.12;45.09
40285;BME280;25997;50.214;19.354;2022-12-18T14:50:55;99762.06;;;-2.30;45.18
40285;BME280;25997;50.214;19.354;2022-12-18T14:54:01;99757.94;;;-2.36;45.31
40285;BME280;25997;50.214;19.354;2022-12-18T14:57:06;99757.44;;;-2.50;45.31
40285;BME280;25997;50.214;19.354;2022-12-18T15:00:18;99772.97;;;-2.57;45.39
40285;BME280;25997;50.214;19.354;2022-12-18T15:03:21;99770.50;;;-2.64;45.74
40285;BME280;25997;50.214;19.354;2022-12-18T15:06:30;99773.34;;;-2.69;45.74
40285;BME280;25997;50.214;19.354;2022-12-18T15:09:34;99780.59;;;-2.74;45.64
40285;BME280;25997;50.214;19.354;2022-12-18T15:12:39;99775.53;;;-2.81;45.77
40285;BME280;25997;50.214;19.354;2022-12-18T15:15:46;99789.22;;;-2.89;45.75
40285;BME280;25997;50.214;19.354;2022-12-18T15:18:49;99785.88;;;-2.96;46.08
40285;BME280;25997;50.214;19.354;2022-12-18T15:21:51;99786.09;;;-3.02;46.05
40285;BME280;25997;50.214;19.354;2022-12-18T15:24:56;99781.09;;;-3.09;46.50
40285;BME280;25997;50.214;19.354;2022-12-18T15:28:02;99791.19;;;-3.10;46.14
40285;BME280;25997;50.214;19.354;2022-12-18T15:31:22;99791.94;;;-3.11;46.25
40285;BME280;25997;50.214;19.354;2022-12-18T15:34:25;99803.88;;;-3.12;46.59
40285;BME280;25997;50.214;19.354;2022-12-18T15:37:27;99793.94;;;-3.09;46.61
40285;BME280;25997;50.214;19.354;2022-12-18T15:40:32;99798.16;;;-3.09;46.52
40285;BME280;25997;50.214;19.354;2022-12-18T15:43:37;99802.63;;;-3.16;46.43
40285;BME280;25997;50.214;19.354;2022-12-18T15:46:40;99799.25;;;-3.23;46.37
40285;BME280;25997;50.214;19.354;2022-12-18T15:49:43;99804.97;;;-3.26;46.31
40285;BME280;25997;50.214;19.354;2022-12-18T15:52:47;99803.53;;;-3.31;46.24
40285;BME280;25997;50.214;19.354;2022-12-18T15:55:52;99812.09;;;-3.39;46.48
40285;BME280;25997;50.214;19.354;2022-12-18T15:59:14;99808.38;;;-3.49;46.41
40285;BME280;25997;50.214;19.354;2022-12-18T16:02:20;99813.59;;;-3.56;46.57
40285;BME280;25997;50.214;19.354;2022-12-18T16:05:27;99819.50;;;-3.64;46.41
40285;BME280;25997;50.214;19.354;2022-12-18T16:08:30;99810.59;;;-3.68;46.39
40285;BME280;25997;50.214;19.354;2022-12-18T16:11:36;99811.56;;;-3.74;46.58
40285;BME280;25997;50.214;19.354;2022-12-18T16:14:42;99808.16;;;-3.82;46.45
40285;BME280;25997;50.214;19.354;2022-12-18T16:17:46;99814.13;;;-3.90;46.64